sensor_id;sensor_type;location;lat;lon;timestamp;temperature;humidity
37052;DHT22;22964;52.272;13.356;2023-03-23T00:01:28;16.40;55.20
37052;DHT22;22964;52.272;13.356;2023-03-23T00:03:58;16.40;55.10
37052;DHT22;22964;52.272;13.356;2023-03-23T00:06:26;16.40;55.10
37052;DHT22;22964;52.272;13.356;2023-03-23T00:08:53;16.40;55.10
37052;DHT22;22964;52.272;13.356;2023-03-23T00:11:26;16.40;55.20
37052;DHT22;22964;52.272;13.356;2023-03-23T00:13:55;16.40;55.20
37052;DHT22;22964;52.272;13.356;2023-03-23T00:16:25;16.30;55.10
37052;DHT22;22964;52.272;13.356;2023-03-23T00:19:09;16.30;55.10
37052;DHT22;22964;52.272;13.356;2023-03-23T00:21:37;16.20;55.20
37052;DHT22;22964;52.272;13.356;2023-03-23T00:24:09;16.20;55.80
37052;DHT22;22964;52.272;13.356;2023-03-23T00:26:37;16.10;55.20
37052;DHT22;22964;52.272;13.356;2023-03-23T00:29:27;16.10;55.10
37052;DHT22;22964;52.272;13.356;2023-03-23T00:31:52;16.10;55.20
37052;DHT22;22964;52.272;13.356;2023-03-23T00:34:20;16.10;55.30
37052;DHT22;22964;52.272;13.356;2023-03-23T00:36:47;16.00;55.30
37052;DHT22;22964;52.272;13.356;2023-03-23T00:39:14;16.00;55.40
37052;DHT22;22964;52.272;13.356;2023-03-23T00:41:42;15.90;55.40
37052;DHT22;22964;52.272;13.356;2023-03-23T00:44:08;15.90;55.50
37052;DHT22;22964;52.272;13.356;2023-03-23T00:46:34;15.80;55.60
37052;DHT22;22964;52.272;13.356;2023-03-23T00:49:17;15.80;55.70
37052;DHT22;22964;52.272;13.356;2023-03-23T00:51:44;15.80;55.80
37052;DHT22;22964;52.272;13.356;2023-03-23T00:54:10;15.80;55.80
37052;DHT22;22964;52.272;13.356;2023-03-23T00:56:36;15.70;55.80
37052;DHT22;22964;52.272;13.356;2023-03-23T00:59:03;15.70;55.90
37052;DHT22;22964;52.272;13.356;2023-03-23T01:01:29;15.70;56.00
37052;DHT22;22964;52.272;13.356;2023-03-23T01:03:58;15.60;56.60
37052;DHT22;22964;52.272;13.356;2023-03-23T01:06:36;15.60;56.00
37052;DHT22;22964;52.272;13.356;2023-03-23T01:09:07;15.60;56.10
37052;DHT22;22964;52.272;13.356;2023-03-23T01:11:33;15.60;56.10
37052;DHT22;22964;52.272;13.356;2023-03-23T01:13:59;15.50;56.10
37052;DHT22;22964;52.272;13.356;2023-03-23T01:16:25;15.50;56.10
37052;DHT22;22964;52.272;13.356;2023-03-23T01:18:51;15.50;56.20
37052;DHT22;22964;52.272;13.356;2023-03-23T01:21:19;15.50;56.30
37052;DHT22;22964;52.272;13.356;2023-03-23T01:23:45;15.50;56.50
37052;DHT22;22964;52.272;13.356;2023-03-23T01:26:17;15.40;56.40
37052;DHT22;22964;52.272;13.356;2023-03-23T01:28:43;15.40;56.50
37052;DHT22;22964;52.272;13.356;2023-03-23T01:31:15;15.40;56.50
37052;DHT22;22964;52.272;13.356;2023-03-23T01:33:42;15.30;56.40
37052;DHT22;22964;52.272;13.356;2023-03-23T01:36:12;15.30;56.40
37052;DHT22;22964;52.272;13.356;2023-03-23T01:38:39;15.30;56.50
37052;DHT22;22964;52.272;13.356;2023-03-23T01:41:05;15.30;56.50
37052;DHT22;22964;52.272;13.356;2023-03-23T01:43:31;15.30;56.60
37052;DHT22;22964;52.272;13.356;2023-03-23T01:45:57;15.30;56.60
37052;DHT22;22964;52.272;13.356;2023-03-23T01:48:36;15.20;56.60
37052;DHT22;22964;52.272;13.356;2023-03-23T01:51:09;15.20;57.00
37052;DHT22;22964;52.272;13.356;2023-03-23T01:53:40;15.10;56.90
37052;DHT22;22964;52.272;13.356;2023-03-23T01:56:09;15.20;56.90
37052;DHT22;22964;52.272;13.356;2023-03-23T01:58:40;15.20;56.90
37052;DHT22;22964;52.272;13.356;2023-03-23T02:01:10;15.10;56.90
37052;DHT22;22964;52.272;13.356;2023-03-23T02:03:41;15.10;57.00
37052;DHT22;22964;52.272;13.356;2023-03-23T02:06:08;15.10;57.10
37052;DHT22;22964;52.272;13.356;2023-03-23T02:08:40;15.10;57.20
37052;DHT22;22964;52.272;13.356;2023-03-23T02:11:18;15.10;57.20
37052;DHT22;22964;52.272;13.356;2023-03-23T02:13:45;15.10;57.40
37052;DHT22;22964;52.272;13.356;2023-03-23T02:24:56;15.10;57.60
37052;DHT22;22964;52.272;13.356;2023-03-23T02:30:08;15.10;57.60
37052;DHT22;22964;52.272;13.356;2023-03-23T02:35:39;15.10;57.90
37052;DHT22;22964;52.272;13.356;2023-03-23T02:38:13;15.20;57.80
37052;DHT22;22964;52.272;13.356;2023-03-23T02:40:43;15.20;57.80
37052;DHT22;22964;52.272;13.356;2023-03-23T02:43:14;15.30;57.80
37052;DHT22;22964;52.272;13.356;2023-03-23T02:45:42;15.30;57.70
37052;DHT22;22964;52.272;13.356;2023-03-23T02:48:11;15.40;57.70
37052;DHT22;22964;52.272;13.356;2023-03-23T02:50:40;15.40;57.60
37052;DHT22;22964;52.272;13.356;2023-03-23T02:53:10;15.50;57.50
37052;DHT22;22964;52.272;13.356;2023-03-23T02:55:39;15.60;57.40
37052;DHT22;22964;52.272;13.356;2023-03-23T02:58:09;15.60;57.30
37052;DHT22;22964;52.272;13.356;2023-03-23T03:00:36;15.70;57.30
37052;DHT22;22964;52.272;13.356;2023-03-23T03:03:04;15.80;57.30
37052;DHT22;22964;52.272;13.356;2023-03-23T03:05:42;15.80;57.30
37052;DHT22;22964;52.272;13.356;2023-03-23T03:08:34;15.90;57.20
37052;DHT22;22964;52.272;13.356;2023-03-23T03:11:13;15.90;57.10
37052;DHT22;22964;52.272;13.356;2023-03-23T03:16:24;16.00;57.00
37052;DHT22;22964;52.272;13.356;2023-03-23T03:19:16;16.00;57.00
37052;DHT22;22964;52.272;13.356;2023-03-23T03:21:45;16.00;57.70
37052;DHT22;22964;52.272;13.356;2023-03-23T03:24:18;16.10;57.00
37052;DHT22;22964;52.272;13.356;2023-03-23T03:26:50;16.10;57.00
37052;DHT22;22964;52.272;13.356;2023-03-23T03:29:45;16.10;57.00
37052;DHT22;22964;52.272;13.356;2023-03-23T03:32:18;16.10;57.00
37052;DHT22;22964;52.272;13.356;2023-03-23T03:34:45;16.10;56.90
37052;DHT22;22964;52.272;13.356;2023-03-23T03:37:13;16.20;56.70
37052;DHT22;22964;52.272;13.356;2023-03-23T03:39:39;16.10;56.70
37052;DHT22;22964;52.272;13.356;2023-03-23T03:42:05;16.20;56.80
37052;DHT22;22964;52.272;13.356;2023-03-23T03:44:32;16.10;56.80
37052;DHT22;22964;52.272;13.356;2023-03-23T03:46:58;16.20;56.80
37052;DHT22;22964;52.272;13.356;2023-03-23T03:49:24;16.20;56.80
37052;DHT22;22964;52.272;13.356;2023-03-23T03:51:52;16.20;56.80
37052;DHT22;22964;52.272;13.356;2023-03-23T03:54:23;16.20;56.80
37052;DHT22;22964;52.272;13.356;2023-03-23T03:56:48;16.20;56.90
37052;DHT22;22964;52.272;13.356;2023-03-23T03:59:37;16.20;56.80
37052;DHT22;22964;52.272;13.356;2023-03-23T04:02:23;16.20;57.00
37052;DHT22;22964;52.272;13.356;2023-03-23T04:04:51;16.20;56.90
37052;DHT22;22964;52.272;13.356;2023-03-23T04:07:18;16.20;57.00
37052;DHT22;22964;52.272;13.356;2023-03-23T04:09:45;16.20;57.00
37052;DHT22;22964;52.272;13.356;2023-03-23T04:12:13;16.20;57.00
37052;DHT22;22964;52.272;13.356;2023-03-23T04:15:08;16.20;57.10
37052;DHT22;22964;52.272;13.356;2023-03-23T04:17:35;16.20;57.00
37052;DHT22;22964;52.272;13.356;2023-03-23T04:20:02;16.10;57.00
37052;DHT22;22964;52.272;13.356;2023-03-23T04:22:32;16.10;57.10
37052;DHT22;22964;52.272;13.356;2023-03-23T04:25:00;16.10;57.20
37052;DHT22;22964;52.272;13.356;2023-03-23T04:27:28;16.10;57.20
37052;DHT22;22964;52.272;13.356;2023-03-23T04:29:57;16.10;57.30
37052;DHT22;22964;52.272;13.356;2023-03-23T04:32:44;16.10;57.40
37052;DHT22;22964;52.272;13.356;2023-03-23T04:35:14;16.00;57.40
37052;DHT22;22964;52.272;13.356;2023-03-23T04:37:46;16.00;57.60
37052;DHT22;22964;52.272;13.356;2023-03-23T04:40:16;16.00;58.30
37052;DHT22;22964;52.272;13.356;2023-03-23T04:42:48;16.00;57.80
37052;DHT22;22964;52.272;13.356;2023-03-23T04:45:28;16.00;57.80
37052;DHT22;22964;52.272;13.356;2023-03-23T04:47:55;15.90;57.80
37052;DHT22;22964;52.272;13.356;2023-03-23T04:50:31;15.90;57.90
37052;DHT22;22964;52.272;13.356;2023-03-23T04:53:04;15.90;57.90
37052;DHT22;22964;52.272;13.356;2023-03-23T04:55:32;15.90;58.00
37052;DHT22;22964;52.272;13.356;2023-03-23T04:58:07;15.90;58.00
37052;DHT22;22964;52.272;13.356;2023-03-23T05:00:38;15.90;58.00
37052;DHT22;22964;52.272;13.356;2023-03-23T05:03:04;15.90;58.60
37052;DHT22;22964;52.272;13.356;2023-03-23T05:05:34;15.90;57.90
37052;DHT22;22964;52.272;13.356;2023-03-23T05:08:04;15.80;57.90
37052;DHT22;22964;52.272;13.356;2023-03-23T05:10:34;15.90;58.00
37052;DHT22;22964;52.272;13.356;2023-03-23T05:13:05;15.90;58.40
37052;DHT22;22964;52.272;13.356;2023-03-23T05:15:31;15.90;57.70
37052;DHT22;22964;52.272;13.356;2023-03-23T05:17:58;15.90;57.70
37052;DHT22;22964;52.272;13.356;2023-03-23T05:20:24;15.90;57.80
37052;DHT22;22964;52.272;13.356;2023-03-23T05:22:56;15.90;57.80
37052;DHT22;22964;52.272;13.356;2023-03-23T05:25:28;15.90;57.80
37052;DHT22;22964;52.272;13.356;2023-03-23T05:28:00;15.90;57.70
37052;DHT22;22964;52.272;13.356;2023-03-23T05:30:45;15.90;57.70
37052;DHT22;22964;52.272;13.356;2023-03-23T05:33:12;15.90;57.80
37052;DHT22;22964;52.272;13.356;2023-03-23T05:35:59;16.00;57.90
37052;DHT22;22964;52.272;13.356;2023-03-23T05:38:31;16.00;58.00
37052;DHT22;22964;52.272;13.356;2023-03-23T05:40:59;16.00;58.00
37052;DHT22;22964;52.272;13.356;2023-03-23T05:43:30;16.00;58.20
37052;DHT22;22964;52.272;13.356;2023-03-23T05:46:08;16.00;58.20
37052;DHT22;22964;52.272;13.356;2023-03-23T05:48:36;16.00;58.00
37052;DHT22;22964;52.272;13.356;2023-03-23T05:51:02;16.00;58.20
37052;DHT22;22964;52.272;13.356;2023-03-23T05:53:30;16.00;58.40
37052;DHT22;22964;52.272;13.356;2023-03-23T05:56:01;16.00;58.50
37052;DHT22;22964;52.272;13.356;2023-03-23T05:58:43;16.00;59.40
37052;DHT22;22964;52.272;13.356;2023-03-23T06:01:09;16.00;58.60
37052;DHT22;22964;52.272;13.356;2023-03-23T06:03:35;15.90;58.50
37052;DHT22;22964;52.272;13.356;2023-03-23T06:06:11;15.90;58.60
37052;DHT22;22964;52.272;13.356;2023-03-23T06:09:00;15.90;58.70
37052;DHT22;22964;52.272;13.356;2023-03-23T06:11:39;15.90;58.80
37052;DHT22;22964;52.272;13.356;2023-03-23T06:14:26;15.90;59.00
37052;DHT22;22964;52.272;13.356;2023-03-23T06:16:53;15.90;59.10
37052;DHT22;22964;52.272;13.356;2023-03-23T06:19:19;15.90;59.30
37052;DHT22;22964;52.272;13.356;2023-03-23T06:21:56;15.80;59.40
37052;DHT22;22964;52.272;13.356;2023-03-23T06:24:45;15.80;59.80
37052;DHT22;22964;52.272;13.356;2023-03-23T06:27:15;15.80;59.60
37052;DHT22;22964;52.272;13.356;2023-03-23T06:29:43;15.80;59.80
37052;DHT22;22964;52.272;13.356;2023-03-23T06:32:11;15.70;59.80
37052;DHT22;22964;52.272;13.356;2023-03-23T06:34:38;15.70;60.30
37052;DHT22;22964;52.272;13.356;2023-03-23T06:37:26;15.60;60.50
37052;DHT22;22964;52.272;13.356;2023-03-23T06:40:14;15.60;61.70
37052;DHT22;22964;52.272;13.356;2023-03-23T06:42:48;15.60;61.20
37052;DHT22;22964;52.272;13.356;2023-03-23T06:45:34;15.60;61.60
37052;DHT22;22964;52.272;13.356;2023-03-23T06:48:38;15.50;61.90
37052;DHT22;22964;52.272;13.356;2023-03-23T06:51:05;15.50;62.00
37052;DHT22;22964;52.272;13.356;2023-03-23T06:53:31;15.50;62.60
37052;DHT22;22964;52.272;13.356;2023-03-23T06:55:59;15.50;62.80
37052;DHT22;22964;52.272;13.356;2023-03-23T06:58:26;15.40;62.90
37052;DHT22;22964;52.272;13.356;2023-03-23T07:00:58;15.50;63.40
37052;DHT22;22964;52.272;13.356;2023-03-23T07:03:31;15.40;64.20
37052;DHT22;22964;52.272;13.356;2023-03-23T07:05:59;15.40;63.70
37052;DHT22;22964;52.272;13.356;2023-03-23T07:08:28;15.40;64.00
37052;DHT22;22964;52.272;13.356;2023-03-23T07:10:55;15.50;64.90
37052;DHT22;22964;52.272;13.356;2023-03-23T07:13:25;15.50;64.70
37052;DHT22;22964;52.272;13.356;2023-03-23T07:15:56;15.50;64.50
37052;DHT22;22964;52.272;13.356;2023-03-23T07:18:23;15.50;64.70
37052;DHT22;22964;52.272;13.356;2023-03-23T07:20:51;15.50;65.10
37052;DHT22;22964;52.272;13.356;2023-03-23T07:23:19;15.50;65.20
37052;DHT22;22964;52.272;13.356;2023-03-23T07:26:06;15.50;65.10
37052;DHT22;22964;52.272;13.356;2023-03-23T07:28:52;15.50;65.10
37052;DHT22;22964;52.272;13.356;2023-03-23T07:31:32;15.50;65.10
37052;DHT22;22964;52.272;13.356;2023-03-23T07:33:58;15.50;65.60
37052;DHT22;22964;52.272;13.356;2023-03-23T07:36:33;15.50;65.40
37052;DHT22;22964;52.272;13.356;2023-03-23T07:39:05;15.50;65.40
37052;DHT22;22964;52.272;13.356;2023-03-23T07:41:33;15.50;65.60
37052;DHT22;22964;52.272;13.356;2023-03-23T07:44:05;15.60;65.90
37052;DHT22;22964;52.272;13.356;2023-03-23T07:46:35;15.60;66.00
37052;DHT22;22964;52.272;13.356;2023-03-23T07:49:11;15.60;66.00
37052;DHT22;22964;52.272;13.356;2023-03-23T07:51:43;15.60;66.10
37052;DHT22;22964;52.272;13.356;2023-03-23T07:54:12;15.60;66.00
37052;DHT22;22964;52.272;13.356;2023-03-23T07:56:54;15.60;66.30
37052;DHT22;22964;52.272;13.356;2023-03-23T07:59:30;15.60;66.60
37052;DHT22;22964;52.272;13.356;2023-03-23T08:01:58;15.70;66.70
37052;DHT22;22964;52.272;13.356;2023-03-23T08:04:50;15.70;67.10
37052;DHT22;22964;52.272;13.356;2023-03-23T08:07:36;15.80;67.50
37052;DHT22;22964;52.272;13.356;2023-03-23T08:10:21;15.70;67.10
37052;DHT22;22964;52.272;13.356;2023-03-23T08:12:56;15.80;67.10
37052;DHT22;22964;52.272;13.356;2023-03-23T08:15:43;15.80;67.10
37052;DHT22;22964;52.272;13.356;2023-03-23T08:18:27;15.80;67.50
37052;DHT22;22964;52.272;13.356;2023-03-23T08:21:04;15.90;67.50
37052;DHT22;22964;52.272;13.356;2023-03-23T08:23:46;15.90;67.60
37052;DHT22;22964;52.272;13.356;2023-03-23T08:26:30;15.90;67.50
37052;DHT22;22964;52.272;13.356;2023-03-23T08:29:19;16.00;67.70
37052;DHT22;22964;52.272;13.356;2023-03-23T08:31:48;16.00;67.80
37052;DHT22;22964;52.272;13.356;2023-03-23T08:34:41;16.00;68.10
37052;DHT22;22964;52.272;13.356;2023-03-23T08:37:31;16.10;67.50
37052;DHT22;22964;52.272;13.356;2023-03-23T08:40:18;16.10;67.50
37052;DHT22;22964;52.272;13.356;2023-03-23T08:43:17;16.20;67.70
37052;DHT22;22964;52.272;13.356;2023-03-23T08:46:12;16.10;68.20
37052;DHT22;22964;52.272;13.356;2023-03-23T08:48:56;16.10;67.50
37052;DHT22;22964;52.272;13.356;2023-03-23T08:51:41;16.10;67.60
37052;DHT22;22964;52.272;13.356;2023-03-23T08:54:42;16.20;67.90
37052;DHT22;22964;52.272;13.356;2023-03-23T08:57:31;16.10;68.00
37052;DHT22;22964;52.272;13.356;2023-03-23T09:00:19;16.20;68.20
37052;DHT22;22964;52.272;13.356;2023-03-23T09:03:25;16.20;68.20
37052;DHT22;22964;52.272;13.356;2023-03-23T09:06:14;16.30;68.20
37052;DHT22;22964;52.272;13.356;2023-03-23T09:08:44;16.40;68.50
37052;DHT22;22964;52.272;13.356;2023-03-23T09:11:11;16.40;69.10
37052;DHT22;22964;52.272;13.356;2023-03-23T09:13:37;16.50;69.20
37052;DHT22;22964;52.272;13.356;2023-03-23T09:16:04;16.60;69.10
37052;DHT22;22964;52.272;13.356;2023-03-23T09:18:31;16.70;68.80
37052;DHT22;22964;52.272;13.356;2023-03-23T09:21:01;16.80;68.80
37052;DHT22;22964;52.272;13.356;2023-03-23T09:23:27;16.90;68.40
37052;DHT22;22964;52.272;13.356;2023-03-23T09:25:53;17.00;69.10
37052;DHT22;22964;52.272;13.356;2023-03-23T09:28:19;17.10;68.20
37052;DHT22;22964;52.272;13.356;2023-03-23T09:30:45;17.20;68.00
37052;DHT22;22964;52.272;13.356;2023-03-23T09:33:13;17.30;67.60
37052;DHT22;22964;52.272;13.356;2023-03-23T09:35:39;17.50;67.00
37052;DHT22;22964;52.272;13.356;2023-03-23T09:38:08;17.50;66.30
37052;DHT22;22964;52.272;13.356;2023-03-23T09:43:19;17.70;65.50
37052;DHT22;22964;52.272;13.356;2023-03-23T09:52:06;17.80;64.80
37052;DHT22;22964;52.272;13.356;2023-03-23T09:54:05;17.80;64.50
37052;DHT22;22964;52.272;13.356;2023-03-23T09:56:35;17.90;64.40
37052;DHT22;22964;52.272;13.356;2023-03-23T09:59:04;17.90;64.40
37052;DHT22;22964;52.272;13.356;2023-03-23T10:04:11;18.00;64.10
37052;DHT22;22964;52.272;13.356;2023-03-23T10:06:37;18.10;64.10
37052;DHT22;22964;52.272;13.356;2023-03-23T10:09:05;18.10;63.70
37052;DHT22;22964;52.272;13.356;2023-03-23T10:14:24;18.10;63.20
37052;DHT22;22964;52.272;13.356;2023-03-23T10:21:54;18.20;62.40
37052;DHT22;22964;52.272;13.356;2023-03-23T10:33:19;18.40;62.00
37052;DHT22;22964;52.272;13.356;2023-03-23T10:38:23;18.50;61.90
37052;DHT22;22964;52.272;13.356;2023-03-23T10:41:06;18.50;61.70
37052;DHT22;22964;52.272;13.356;2023-03-23T10:43:34;18.60;61.40
37052;DHT22;22964;52.272;13.356;2023-03-23T10:46:05;18.60;61.10
37052;DHT22;22964;52.272;13.356;2023-03-23T10:48:38;18.60;60.90
37052;DHT22;22964;52.272;13.356;2023-03-23T10:51:09;18.60;61.00
37052;DHT22;22964;52.272;13.356;2023-03-23T10:53:43;18.60;60.80
37052;DHT22;22964;52.272;13.356;2023-03-23T10:56:24;18.60;60.60
37052;DHT22;22964;52.272;13.356;2023-03-23T10:58:51;18.60;60.40
37052;DHT22;22964;52.272;13.356;2023-03-23T11:01:19;18.60;60.60
37052;DHT22;22964;52.272;13.356;2023-03-23T11:03:48;18.60;59.90
37052;DHT22;22964;52.272;13.356;2023-03-23T11:06:29;18.60;60.20
37052;DHT22;22964;52.272;13.356;2023-03-23T11:09:03;18.60;60.20
37052;DHT22;22964;52.272;13.356;2023-03-23T11:11:31;18.60;60.40
37052;DHT22;22964;52.272;13.356;2023-03-23T11:14:41;18.70;60.50
37052;DHT22;22964;52.272;13.356;2023-03-23T11:16:51;18.70;59.80
37052;DHT22;22964;52.272;13.356;2023-03-23T11:19:29;18.70;59.60
37052;DHT22;22964;52.272;13.356;2023-03-23T11:22:06;18.70;59.00
37052;DHT22;22964;52.272;13.356;2023-03-23T11:24:40;18.80;59.30
37052;DHT22;22964;52.272;13.356;2023-03-23T11:27:07;18.80;59.40
37052;DHT22;22964;52.272;13.356;2023-03-23T11:29:35;18.80;59.20
37052;DHT22;22964;52.272;13.356;2023-03-23T11:32:09;18.80;58.70
37052;DHT22;22964;52.272;13.356;2023-03-23T11:34:47;18.80;59.70
37052;DHT22;22964;52.272;13.356;2023-03-23T11:37:35;18.80;59.00
37052;DHT22;22964;52.272;13.356;2023-03-23T11:42:38;18.90;59.10
37052;DHT22;22964;52.272;13.356;2023-03-23T11:45:38;18.90;59.10
37052;DHT22;22964;52.272;13.356;2023-03-23T11:51:00;19.00;58.80
37052;DHT22;22964;52.272;13.356;2023-03-23T11:56:28;19.10;58.10
37052;DHT22;22964;52.272;13.356;2023-03-23T11:58:56;19.10;58.10
37052;DHT22;22964;52.272;13.356;2023-03-23T12:01:53;19.20;58.00
37052;DHT22;22964;52.272;13.356;2023-03-23T12:18:17;19.40;57.30
37052;DHT22;22964;52.272;13.356;2023-03-23T12:26:41;19.60;56.50
37052;DHT22;22964;52.272;13.356;2023-03-23T12:29:46;19.70;57.00
37052;DHT22;22964;52.272;13.356;2023-03-23T12:32:25;19.80;57.10
37052;DHT22;22964;52.272;13.356;2023-03-23T12:37:55;20.00;56.40
37052;DHT22;22964;52.272;13.356;2023-03-23T12:40:52;20.00;55.70
37052;DHT22;22964;52.272;13.356;2023-03-23T12:48:31;20.20;55.50
37052;DHT22;22964;52.272;13.356;2023-03-23T12:53:34;20.20;55.30
37052;DHT22;22964;52.272;13.356;2023-03-23T12:58:48;20.20;54.70
37052;DHT22;22964;52.272;13.356;2023-03-23T13:01:23;20.20;54.20
37052;DHT22;22964;52.272;13.356;2023-03-23T13:03:59;20.20;54.20
37052;DHT22;22964;52.272;13.356;2023-03-23T13:06:32;20.20;54.40
37052;DHT22;22964;52.272;13.356;2023-03-23T13:09:12;20.20;54.30
37052;DHT22;22964;52.272;13.356;2023-03-23T13:11:41;20.30;54.20
37052;DHT22;22964;52.272;13.356;2023-03-23T13:17:20;20.20;53.40
37052;DHT22;22964;52.272;13.356;2023-03-23T13:28:02;20.50;53.00
37052;DHT22;22964;52.272;13.356;2023-03-23T13:30:29;20.50;53.50
37052;DHT22;22964;52.272;13.356;2023-03-23T13:33:03;20.50;53.40
37052;DHT22;22964;52.272;13.356;2023-03-23T13:35:35;20.60;53.30
37052;DHT22;22964;52.272;13.356;2023-03-23T13:38:23;20.70;52.80
37052;DHT22;22964;52.272;13.356;2023-03-23T13:40:51;20.70;52.40
37052;DHT22;22964;52.272;13.356;2023-03-23T13:43:30;20.80;52.60
37052;DHT22;22964;52.272;13.356;2023-03-23T13:46:08;20.90;52.40
37052;DHT22;22964;52.272;13.356;2023-03-23T13:48:47;20.90;51.90
37052;DHT22;22964;52.272;13.356;2023-03-23T13:51:36;20.90;51.50
37052;DHT22;22964;52.272;13.356;2023-03-23T13:56:58;20.90;51.80
37052;DHT22;22964;52.272;13.356;2023-03-23T14:01:53;20.90;51.90
37052;DHT22;22964;52.272;13.356;2023-03-23T14:04:21;20.90;51.90
37052;DHT22;22964;52.272;13.356;2023-03-23T14:06:49;20.90;51.30
37052;DHT22;22964;52.272;13.356;2023-03-23T14:09:33;20.80;51.90
37052;DHT22;22964;52.272;13.356;2023-03-23T14:12:04;20.80;52.00
37052;DHT22;22964;52.272;13.356;2023-03-23T14:14:45;20.80;51.80
37052;DHT22;22964;52.272;13.356;2023-03-23T14:17:15;20.80;51.70
37052;DHT22;22964;52.272;13.356;2023-03-23T14:19:46;20.80;51.80
37052;DHT22;22964;52.272;13.356;2023-03-23T14:22:27;20.80;51.30
37052;DHT22;22964;52.272;13.356;2023-03-23T14:25:11;20.80;50.60
37052;DHT22;22964;52.272;13.356;2023-03-23T14:27:38;20.70;50.60
37052;DHT22;22964;52.272;13.356;2023-03-23T14:30:25;20.70;51.50
37052;DHT22;22964;52.272;13.356;2023-03-23T14:32:52;20.70;51.70
37052;DHT22;22964;52.272;13.356;2023-03-23T14:35:26;20.70;51.50
37052;DHT22;22964;52.272;13.356;2023-03-23T14:37:54;20.70;51.80
37052;DHT22;22964;52.272;13.356;2023-03-23T14:40:21;20.70;51.90
37052;DHT22;22964;52.272;13.356;2023-03-23T14:42:47;20.70;51.60
37052;DHT22;22964;52.272;13.356;2023-03-23T14:45:17;20.70;51.70
37052;DHT22;22964;52.272;13.356;2023-03-23T14:47:54;20.60;51.30
37052;DHT22;22964;52.272;13.356;2023-03-23T14:51:14;20.60;50.90
37052;DHT22;22964;52.272;13.356;2023-03-23T14:55:50;20.60;51.20
37052;DHT22;22964;52.272;13.356;2023-03-23T14:58:18;20.60;51.30
37052;DHT22;22964;52.272;13.356;2023-03-23T15:03:21;20.50;50.30
37052;DHT22;22964;52.272;13.356;2023-03-23T15:05:56;20.50;49.90
37052;DHT22;22964;52.272;13.356;2023-03-23T15:08:28;20.40;50.10
37052;DHT22;22964;52.272;13.356;2023-03-23T15:11:07;20.40;50.10
37052;DHT22;22964;52.272;13.356;2023-03-23T15:13:35;20.30;49.90
37052;DHT22;22964;52.272;13.356;2023-03-23T15:16:07;20.30;50.50
37052;DHT22;22964;52.272;13.356;2023-03-23T15:18:38;20.30;50.20
37052;DHT22;22964;52.272;13.356;2023-03-23T15:21:10;20.30;50.70
37052;DHT22;22964;52.272;13.356;2023-03-23T15:23:42;20.20;50.50
37052;DHT22;22964;52.272;13.356;2023-03-23T15:26:28;20.20;50.80
37052;DHT22;22964;52.272;13.356;2023-03-23T15:31:33;20.20;50.80
37052;DHT22;22964;52.272;13.356;2023-03-23T15:34:01;20.20;50.90
37052;DHT22;22964;52.272;13.356;2023-03-23T15:36:31;20.30;51.30
37052;DHT22;22964;52.272;13.356;2023-03-23T15:38:58;20.30;51.10
37052;DHT22;22964;52.272;13.356;2023-03-23T15:41:30;20.30;51.50
37052;DHT22;22964;52.272;13.356;2023-03-23T15:44:10;20.30;50.70
37052;DHT22;22964;52.272;13.356;2023-03-23T15:46:36;20.40;50.20
37052;DHT22;22964;52.272;13.356;2023-03-23T15:49:12;20.40;50.20
37052;DHT22;22964;52.272;13.356;2023-03-23T15:51:41;20.40;50.20
37052;DHT22;22964;52.272;13.356;2023-03-23T15:54:15;20.40;50.50
37052;DHT22;22964;52.272;13.356;2023-03-23T15:56:41;20.40;50.10
37052;DHT22;22964;52.272;13.356;2023-03-23T15:59:08;20.40;50.50
37052;DHT22;22964;52.272;13.356;2023-03-23T16:01:37;20.40;50.60
37052;DHT22;22964;52.272;13.356;2023-03-23T16:04:13;20.40;50.20
37052;DHT22;22964;52.272;13.356;2023-03-23T16:06:40;20.40;51.10
37052;DHT22;22964;52.272;13.356;2023-03-23T16:09:06;20.40;50.70
37052;DHT22;22964;52.272;13.356;2023-03-23T16:11:35;20.40;50.30
37052;DHT22;22964;52.272;13.356;2023-03-23T16:14:01;20.40;50.30
37052;DHT22;22964;52.272;13.356;2023-03-23T16:18:55;20.30;50.50
37052;DHT22;22964;52.272;13.356;2023-03-23T16:21:21;20.30;51.00
37052;DHT22;22964;52.272;13.356;2023-03-23T16:23:47;20.30;50.40
37052;DHT22;22964;52.272;13.356;2023-03-23T16:26:14;20.30;50.40
37052;DHT22;22964;52.272;13.356;2023-03-23T16:28:40;20.20;50.40
37052;DHT22;22964;52.272;13.356;2023-03-23T16:31:06;20.20;50.50
37052;DHT22;22964;52.272;13.356;2023-03-23T16:33:32;20.10;50.30
37052;DHT22;22964;52.272;13.356;2023-03-23T16:35:59;20.10;50.60
37052;DHT22;22964;52.272;13.356;2023-03-23T16:38:26;20.00;50.60
37052;DHT22;22964;52.272;13.356;2023-03-23T16:40:51;20.00;50.80
37052;DHT22;22964;52.272;13.356;2023-03-23T16:43:17;20.00;50.80
37052;DHT22;22964;52.272;13.356;2023-03-23T16:45:45;19.90;50.90
37052;DHT22;22964;52.272;13.356;2023-03-23T16:48:12;19.90;50.80
37052;DHT22;22964;52.272;13.356;2023-03-23T16:50:39;19.90;50.70
37052;DHT22;22964;52.272;13.356;2023-03-23T16:53:06;19.80;50.80
37052;DHT22;22964;52.272;13.356;2023-03-23T16:55:33;19.80;51.00
37052;DHT22;22964;52.272;13.356;2023-03-23T16:57:59;19.70;50.90
37052;DHT22;22964;52.272;13.356;2023-03-23T17:00:25;19.60;51.00
37052;DHT22;22964;52.272;13.356;2023-03-23T17:02:53;19.70;51.80
37052;DHT22;22964;52.272;13.356;2023-03-23T17:05:26;19.70;51.20
37052;DHT22;22964;52.272;13.356;2023-03-23T17:07:52;19.60;51.10
37052;DHT22;22964;52.272;13.356;2023-03-23T17:10:20;19.60;51.20
37052;DHT22;22964;52.272;13.356;2023-03-23T17:12:47;19.50;51.20
37052;DHT22;22964;52.272;13.356;2023-03-23T17:15:13;19.50;51.20
37052;DHT22;22964;52.272;13.356;2023-03-23T17:17:38;19.40;51.20
37052;DHT22;22964;52.272;13.356;2023-03-23T17:20:05;19.40;51.40
37052;DHT22;22964;52.272;13.356;2023-03-23T17:22:32;19.40;51.40
37052;DHT22;22964;52.272;13.356;2023-03-23T17:24:58;19.30;51.50
37052;DHT22;22964;52.272;13.356;2023-03-23T17:27:24;19.30;51.60
37052;DHT22;22964;52.272;13.356;2023-03-23T17:29:50;19.30;51.70
37052;DHT22;22964;52.272;13.356;2023-03-23T17:32:16;19.20;51.80
37052;DHT22;22964;52.272;13.356;2023-03-23T17:34:43;19.20;51.90
37052;DHT22;22964;52.272;13.356;2023-03-23T17:37:09;19.10;52.00
37052;DHT22;22964;52.272;13.356;2023-03-23T17:39:35;19.10;52.10
37052;DHT22;22964;52.272;13.356;2023-03-23T17:42:01;19.10;52.20
37052;DHT22;22964;52.272;13.356;2023-03-23T17:44:28;19.00;52.30